Wascott, Wisconsin
Current Conditions -  °F | °C
As of 3:55 AM on Monday 22 Dec 2014 (Local Time) from KOLG Reporting Station
Overcast Overcast  
Wind Chill: 26°   Ceiling: 400
Heat Index: 32°   Visibility: 5mi
Dew Point: 32°   Wind: 7mph
Humidity: 100%   Direction: 160°SSE
Pressure: 29.72"   Gusts: NA
Location:  46.17°N, 91.8°W
Report Text: KOLG 220955Z AUTO 16006KT 5SM OVC004 00/00 A2972 RMK AO1 P0002
Loading
Personal Weather Stations






























Interactive Weather Map New forecast layout! Learn more

10-Day Weather Forecast

Advertisements
Track Severe Weather on mobile